createdAt,value
2023-03-29T00:00:08.311Z,519.00
2023-03-29T00:01:08.324Z,520.00
2023-03-29T00:02:08.393Z,519.00
2023-03-29T00:03:08.476Z,517.00
2023-03-29T00:04:08.397Z,515.00
2023-03-29T00:05:08.385Z,516.00
2023-03-29T00:06:08.429Z,517.00
2023-03-29T00:07:08.467Z,515.00
2023-03-29T00:08:08.478Z,515.00
2023-03-29T00:09:08.499Z,514.00
2023-03-29T00:10:08.493Z,510.00
2023-03-29T00:11:08.555Z,513.00
2023-03-29T00:12:08.475Z,511.00
2023-03-29T00:13:08.465Z,510.00
2023-03-29T00:14:08.452Z,510.00
2023-03-29T00:15:08.443Z,510.00
2023-03-29T00:16:08.427Z,506.00
2023-03-29T00:17:08.487Z,504.00
2023-03-29T00:18:08.433Z,507.00
2023-03-29T00:19:08.406Z,507.00
2023-03-29T00:20:08.384Z,510.00
2023-03-29T00:21:08.358Z,507.00
2023-03-29T00:22:08.349Z,504.00
2023-03-29T00:23:08.318Z,501.00
2023-03-29T00:24:08.319Z,506.00
2023-03-29T00:25:08.317Z,505.00
2023-03-29T00:26:08.576Z,506.00
2023-03-29T00:27:08.268Z,505.00
2023-03-29T00:28:08.243Z,500.00
2023-03-29T00:29:08.231Z,505.00
2023-03-29T00:30:08.256Z,505.00
2023-03-29T00:31:08.317Z,506.00
2023-03-29T00:32:08.237Z,502.00
2023-03-29T00:33:08.261Z,501.00
2023-03-29T00:34:08.237Z,500.00
2023-03-29T00:35:08.229Z,507.00
2023-03-29T00:36:08.274Z,505.00
2023-03-29T00:37:08.205Z,506.00
2023-03-29T00:38:08.186Z,500.00
2023-03-29T00:39:08.184Z,504.00
2023-03-29T00:40:08.166Z,503.00
2023-03-29T00:41:08.153Z,503.00
2023-03-29T00:42:08.133Z,504.00
2023-03-29T00:43:08.099Z,500.00
2023-03-29T00:44:08.089Z,500.00
2023-03-29T00:45:08.094Z,510.00
2023-03-29T00:46:08.147Z,504.00
2023-03-29T00:47:08.057Z,511.00
2023-03-29T00:48:08.121Z,507.00
2023-03-29T00:49:08.022Z,500.00
2023-03-29T00:50:07.988Z,502.00
2023-03-29T00:51:09.866Z,502.00
2023-03-29T00:52:07.941Z,505.00
2023-03-29T00:53:07.921Z,500.00
2023-03-29T00:54:07.902Z,504.00
2023-03-29T00:55:07.881Z,504.00
2023-03-29T00:56:07.861Z,503.00
2023-03-29T00:57:07.866Z,504.00
2023-03-29T00:58:07.812Z,502.00
2023-03-29T00:59:07.798Z,504.00
2023-03-29T01:00:07.772Z,502.00
2023-03-29T01:01:07.749Z,502.00
2023-03-29T01:02:07.833Z,503.00
2023-03-29T01:03:07.862Z,502.00
2023-03-29T01:04:07.789Z,504.00
2023-03-29T01:05:07.704Z,504.00
2023-03-29T01:06:07.701Z,500.00
2023-03-29T01:07:07.739Z,504.00
2023-03-29T01:08:07.667Z,502.00
2023-03-29T01:09:07.641Z,501.00
2023-03-29T01:10:07.616Z,507.00
2023-03-29T01:11:07.605Z,504.00
2023-03-29T01:12:07.591Z,502.00
2023-03-29T01:13:07.561Z,507.00
2023-03-29T01:14:07.691Z,504.00
2023-03-29T01:15:07.528Z,501.00
2023-03-29T01:16:07.544Z,508.00
2023-03-29T01:17:07.501Z,502.00
2023-03-29T01:18:07.562Z,502.00
2023-03-29T01:19:07.452Z,500.00
2023-03-29T01:20:07.430Z,500.00
2023-03-29T01:21:07.434Z,503.00
2023-03-29T01:22:07.390Z,503.00
2023-03-29T01:23:07.407Z,510.00
2023-03-29T01:24:07.409Z,506.00
2023-03-29T01:25:07.379Z,503.00
2023-03-29T01:26:07.344Z,500.00
2023-03-29T01:27:07.336Z,501.00
2023-03-29T01:28:07.319Z,503.00
2023-03-29T01:29:07.295Z,500.00
2023-03-29T01:30:07.274Z,502.00
2023-03-29T01:31:07.261Z,512.00
2023-03-29T01:32:07.305Z,508.00
2023-03-29T01:33:07.268Z,510.00
2023-03-29T01:34:07.209Z,507.00
2023-03-29T01:35:07.830Z,504.00
2023-03-29T01:36:07.195Z,505.00
2023-03-29T01:37:07.154Z,506.00
2023-03-29T01:38:07.131Z,514.00
2023-03-29T01:39:07.197Z,500.00
2023-03-29T01:40:07.104Z,507.00
2023-03-29T01:41:07.109Z,502.00
2023-03-29T01:42:07.077Z,501.00
2023-03-29T01:43:07.061Z,507.00
2023-03-29T01:44:07.054Z,502.00
2023-03-29T01:45:07.023Z,504.00
2023-03-29T01:46:07.053Z,505.00
2023-03-29T01:47:07.004Z,507.00
2023-03-29T01:48:07.040Z,502.00
2023-03-29T01:49:06.973Z,502.00
2023-03-29T01:50:06.987Z,503.00
2023-03-29T01:51:06.944Z,503.00
2023-03-29T01:52:06.939Z,509.00
2023-03-29T01:53:06.912Z,504.00
2023-03-29T01:54:06.888Z,503.00
2023-03-29T01:55:06.877Z,504.00
2023-03-29T01:56:06.855Z,505.00
2023-03-29T01:57:06.892Z,508.00
2023-03-29T01:58:06.835Z,505.00
2023-03-29T01:59:06.807Z,503.00
2023-03-29T02:00:06.792Z,506.00
2023-03-29T02:01:06.786Z,502.00
2023-03-29T02:02:06.777Z,503.00
2023-03-29T02:03:06.937Z,504.00
2023-03-29T02:04:06.732Z,508.00
2023-03-29T02:05:06.713Z,504.00
2023-03-29T02:06:06.710Z,503.00
2023-03-29T02:07:06.687Z,506.00
2023-03-29T02:08:06.670Z,502.00
2023-03-29T02:09:06.666Z,501.00
2023-03-29T02:10:06.675Z,506.00
2023-03-29T02:11:06.654Z,504.00
2023-03-29T02:12:06.645Z,502.00
2023-03-29T02:13:06.626Z,504.00
2023-03-29T02:14:06.615Z,507.00
2023-03-29T02:15:06.604Z,503.00
2023-03-29T02:16:06.648Z,503.00
2023-03-29T02:17:06.582Z,507.00
2023-03-29T02:18:06.725Z,500.00
2023-03-29T02:19:06.557Z,500.00
2023-03-29T02:20:06.537Z,508.00
2023-03-29T02:21:06.510Z,505.00
2023-03-29T02:22:06.497Z,506.00
2023-03-29T02:23:06.480Z,504.00
2023-03-29T02:24:06.490Z,508.00
2023-03-29T02:25:06.495Z,503.00
2023-03-29T02:26:06.424Z,503.00
2023-03-29T02:27:06.472Z,502.00
2023-03-29T02:28:06.395Z,502.00
2023-03-29T02:29:06.386Z,500.00
2023-03-29T02:30:06.373Z,504.00
2023-03-29T02:31:06.374Z,505.00
2023-03-29T02:32:06.351Z,505.00
2023-03-29T02:33:06.365Z,506.00
2023-03-29T02:34:06.335Z,509.00
2023-03-29T02:35:06.321Z,508.00
2023-03-29T02:36:06.380Z,500.00
2023-03-29T02:37:06.291Z,506.00
2023-03-29T02:38:06.284Z,508.00
2023-03-29T02:39:06.287Z,504.00
2023-03-29T02:40:06.274Z,503.00
2023-03-29T02:41:06.260Z,503.00
2023-03-29T02:42:06.283Z,509.00
2023-03-29T02:43:06.238Z,502.00
2023-03-29T02:44:06.225Z,503.00
2023-03-29T02:45:06.209Z,505.00
2023-03-29T02:46:06.205Z,500.00
2023-03-29T02:47:06.198Z,501.00
2023-03-29T02:49:06.153Z,505.00
2023-03-29T02:50:06.149Z,507.00
2023-03-29T02:51:06.141Z,500.00
2023-03-29T02:52:06.133Z,507.00
2023-03-29T02:53:06.124Z,505.00
2023-03-29T02:54:06.110Z,508.00
2023-03-29T02:55:06.105Z,506.00
2023-03-29T02:56:06.088Z,505.00
2023-03-29T02:57:06.096Z,504.00
2023-03-29T02:58:06.073Z,504.00
2023-03-29T02:59:06.069Z,501.00
2023-03-29T03:00:06.062Z,500.00
2023-03-29T03:01:06.049Z,500.00
2023-03-29T03:02:06.069Z,504.00
2023-03-29T03:03:06.208Z,501.00
2023-03-29T03:04:06.106Z,508.00
2023-03-29T03:05:06.025Z,506.00
2023-03-29T03:06:06.011Z,507.00
2023-03-29T03:07:06.008Z,502.00
2023-03-29T03:08:05.985Z,501.00
2023-03-29T03:09:05.985Z,505.00
2023-03-29T03:10:05.983Z,503.00
2023-03-29T03:11:05.960Z,503.00
2023-03-29T03:12:05.956Z,507.00
2023-03-29T03:13:05.932Z,504.00
2023-03-29T03:14:05.942Z,504.00
2023-03-29T03:15:05.962Z,510.00
2023-03-29T03:16:05.964Z,509.00
2023-03-29T03:17:05.918Z,507.00
2023-03-29T03:18:05.981Z,504.00
2023-03-29T03:19:05.924Z,507.00
2023-03-29T03:20:05.877Z,504.00
2023-03-29T03:21:05.866Z,510.00
2023-03-29T03:22:05.895Z,503.00
2023-03-29T03:23:05.855Z,506.00
2023-03-29T03:24:05.844Z,508.00
2023-03-29T03:25:05.841Z,502.00
2023-03-29T03:26:05.828Z,504.00
2023-03-29T03:27:05.822Z,503.00
2023-03-29T03:28:05.831Z,503.00
2023-03-29T03:29:05.807Z,506.00
2023-03-29T03:30:05.793Z,504.00
2023-03-29T03:31:05.777Z,511.00
2023-03-29T03:32:05.855Z,512.00
2023-03-29T03:33:05.794Z,501.00
2023-03-29T03:34:05.737Z,504.00
2023-03-29T03:35:05.735Z,505.00
2023-03-29T03:36:05.798Z,504.00
2023-03-29T03:37:05.815Z,505.00
2023-03-29T03:38:05.776Z,505.00
2023-03-29T03:39:05.819Z,509.00
2023-03-29T03:40:05.772Z,507.00
2023-03-29T03:41:06.168Z,501.00
2023-03-29T03:42:08.237Z,509.00
2023-03-29T03:43:05.758Z,501.00
2023-03-29T03:44:05.741Z,505.00
2023-03-29T03:45:05.724Z,506.00
2023-03-29T03:46:05.795Z,507.00
2023-03-29T03:47:05.709Z,503.00
2023-03-29T03:48:05.730Z,506.00
2023-03-29T03:49:05.759Z,509.00
2023-03-29T03:50:05.677Z,503.00
2023-03-29T03:51:05.673Z,504.00
2023-03-29T03:52:05.671Z,508.00
2023-03-29T03:53:05.661Z,500.00
2023-03-29T03:54:05.653Z,509.00
2023-03-29T03:55:05.645Z,507.00
2023-03-29T03:56:05.612Z,504.00
2023-03-29T03:57:05.612Z,505.00
2023-03-29T03:58:05.633Z,506.00
2023-03-29T03:59:05.578Z,505.00
2023-03-29T04:00:05.544Z,504.00
2023-03-29T04:01:05.530Z,504.00
2023-03-29T04:02:05.545Z,503.00
2023-03-29T04:03:05.634Z,503.00
2023-03-29T04:04:05.511Z,500.00
2023-03-29T04:05:05.463Z,508.00
2023-03-29T04:06:06.373Z,505.00
2023-03-29T04:07:05.432Z,509.00
2023-03-29T04:08:05.429Z,500.00
2023-03-29T04:09:05.416Z,506.00
2023-03-29T04:10:05.394Z,502.00
2023-03-29T04:11:05.398Z,506.00
2023-03-29T04:12:05.380Z,506.00
2023-03-29T04:13:05.368Z,506.00
2023-03-29T04:14:05.371Z,502.00
2023-03-29T04:15:05.340Z,508.00
2023-03-29T04:16:05.347Z,505.00
2023-03-29T04:17:05.318Z,504.00
2023-03-29T04:18:05.418Z,502.00
2023-03-29T04:19:05.288Z,503.00
2023-03-29T04:20:05.279Z,507.00
2023-03-29T04:21:05.272Z,506.00
2023-03-29T04:22:05.253Z,505.00
2023-03-29T04:23:05.239Z,504.00
2023-03-29T04:24:05.218Z,505.00
2023-03-29T04:25:05.224Z,503.00
2023-03-29T04:26:05.186Z,506.00
2023-03-29T04:27:05.180Z,500.00
2023-03-29T04:28:05.157Z,505.00
2023-03-29T04:29:05.134Z,501.00
2023-03-29T04:30:05.111Z,505.00
2023-03-29T04:31:05.394Z,499.00
2023-03-29T04:32:05.071Z,507.00
2023-03-29T04:33:05.107Z,510.00
2023-03-29T04:34:05.047Z,500.00
2023-03-29T04:35:05.038Z,509.00
2023-03-29T04:36:05.052Z,503.00
2023-03-29T04:37:04.996Z,503.00
2023-03-29T04:38:04.982Z,501.00
2023-03-29T04:39:04.971Z,507.00
2023-03-29T04:40:04.941Z,506.00
2023-03-29T04:41:05.037Z,506.00
2023-03-29T04:42:04.910Z,503.00
2023-03-29T04:43:04.897Z,511.00
2023-03-29T04:44:04.879Z,509.00
2023-03-29T04:45:05.044Z,507.00
2023-03-29T04:46:04.874Z,504.00
2023-03-29T04:47:04.831Z,502.00
2023-03-29T04:48:04.869Z,500.00
2023-03-29T04:49:04.795Z,508.00
2023-03-29T04:50:04.788Z,506.00
2023-03-29T04:51:04.770Z,505.00
2023-03-29T04:52:04.762Z,506.00
2023-03-29T04:53:04.733Z,512.00
2023-03-29T04:54:04.716Z,507.00
2023-03-29T04:55:04.699Z,505.00
2023-03-29T04:56:04.684Z,506.00
2023-03-29T04:57:04.686Z,508.00
2023-03-29T04:58:04.657Z,509.00
2023-03-29T04:59:04.642Z,508.00
2023-03-29T05:00:04.625Z,502.00
2023-03-29T05:01:04.776Z,508.00
2023-03-29T05:02:04.661Z,507.00
2023-03-29T05:03:04.671Z,509.00
2023-03-29T05:04:04.597Z,506.00
2023-03-29T05:05:04.562Z,503.00
2023-03-29T05:06:04.541Z,502.00
2023-03-29T05:07:04.524Z,508.00
2023-03-29T05:08:04.496Z,508.00
2023-03-29T05:09:04.488Z,501.00
2023-03-29T05:10:04.479Z,501.00
2023-03-29T05:11:04.600Z,506.00
2023-03-29T05:12:04.510Z,506.00
2023-03-29T05:13:04.434Z,512.00
2023-03-29T05:14:04.422Z,502.00
2023-03-29T05:15:04.439Z,509.00
2023-03-29T05:16:04.445Z,511.00
2023-03-29T05:17:04.351Z,505.00
2023-03-29T05:18:04.408Z,508.00
2023-03-29T05:19:04.332Z,505.00
2023-03-29T05:20:04.317Z,508.00
2023-03-29T05:21:04.692Z,505.00
2023-03-29T05:22:04.277Z,506.00
2023-03-29T05:23:04.277Z,503.00
2023-03-29T05:24:05.920Z,513.00
2023-03-29T05:25:04.229Z,512.00
2023-03-29T05:26:04.227Z,514.00
2023-03-29T05:27:04.196Z,516.00
2023-03-29T05:28:04.172Z,529.00
2023-03-29T05:29:04.165Z,533.00
2023-03-29T05:30:04.137Z,546.00
2023-03-29T05:31:04.607Z,563.00
2023-03-29T05:32:04.118Z,584.00
2023-03-29T05:33:04.110Z,577.00
2023-03-29T05:34:04.070Z,590.00
2023-03-29T05:35:04.056Z,601.00
2023-03-29T05:36:04.052Z,620.00
2023-03-29T05:37:04.020Z,620.00
2023-03-29T05:38:04.069Z,636.00
2023-03-29T05:39:04.096Z,649.00
2023-03-29T05:40:05.569Z,660.00
2023-03-29T05:41:04.207Z,660.00
2023-03-29T05:42:04.833Z,662.00
2023-03-29T05:43:05.918Z,669.00
2023-03-29T05:44:04.047Z,700.00
2023-03-29T05:45:04.026Z,774.00
2023-03-29T05:46:04.057Z,803.00
2023-03-29T05:47:03.983Z,832.00
2023-03-29T05:48:04.071Z,861.00
2023-03-29T05:49:03.918Z,872.00
2023-03-29T05:50:03.896Z,899.00
2023-03-29T05:51:03.962Z,942.00
2023-03-29T05:52:03.852Z,975.00
2023-03-29T05:53:03.862Z,999.00
2023-03-29T05:54:03.781Z,1017.00
2023-03-29T05:55:03.746Z,1034.00
2023-03-29T05:56:03.728Z,1061.00
2023-03-29T05:57:03.752Z,1117.00
2023-03-29T05:58:03.671Z,1114.00
2023-03-29T05:59:03.677Z,1154.00
2023-03-29T06:00:03.633Z,1181.00
2023-03-29T06:01:04.578Z,1203.00
2023-03-29T06:02:03.571Z,1232.00
2023-03-29T06:03:13.688Z,1268.00
2023-03-29T06:04:04.632Z,1269.00
2023-03-29T06:05:03.519Z,1274.00
2023-03-29T06:06:03.422Z,1295.00
2023-03-29T06:07:03.396Z,1320.00
2023-03-29T06:08:03.359Z,1367.00
2023-03-29T06:09:03.322Z,1385.00
2023-03-29T06:10:03.290Z,1418.00
2023-03-29T06:11:05.109Z,1425.00
2023-03-29T06:12:03.225Z,1451.00
2023-03-29T06:13:03.181Z,1460.00
2023-03-29T06:14:03.157Z,1470.00
2023-03-29T06:15:03.148Z,1501.00
2023-03-29T06:16:04.429Z,1478.00
2023-03-29T06:17:03.067Z,1533.00
2023-03-29T06:18:03.062Z,1563.00
2023-03-29T06:19:02.989Z,1561.00
2023-03-29T06:20:02.944Z,1596.00
2023-03-29T06:21:03.867Z,1598.00
2023-03-29T06:22:02.895Z,1605.00
2023-03-29T06:23:02.873Z,1615.00
2023-03-29T06:24:02.825Z,947.00
2023-03-29T06:25:02.796Z,525.00
2023-03-29T06:26:02.768Z,528.00
2023-03-29T06:27:02.758Z,570.00
2023-03-29T06:28:02.753Z,583.00
2023-03-29T06:29:02.725Z,592.00
2023-03-29T06:30:03.711Z,593.00
2023-03-29T06:31:03.808Z,597.00
2023-03-29T06:32:02.655Z,610.00
2023-03-29T06:33:02.656Z,629.00
2023-03-29T06:34:02.603Z,649.00
2023-03-29T06:35:02.589Z,660.00
2023-03-29T06:36:02.587Z,657.00
2023-03-29T06:37:02.502Z,682.00
2023-03-29T06:38:02.474Z,727.00
2023-03-29T06:39:02.495Z,771.00
2023-03-29T06:40:02.416Z,813.00
2023-03-29T06:41:02.635Z,831.00
2023-03-29T06:42:10.048Z,881.00
2023-03-29T06:43:03.350Z,883.00
2023-03-29T06:44:02.303Z,890.00
2023-03-29T06:45:02.276Z,906.00
2023-03-29T06:46:02.260Z,944.00
2023-03-29T06:47:02.201Z,1011.00
2023-03-29T06:48:02.231Z,1029.00
2023-03-29T06:49:02.213Z,1058.00
2023-03-29T06:50:02.101Z,1052.00
2023-03-29T06:51:02.288Z,1048.00
2023-03-29T06:52:02.057Z,1112.00
2023-03-29T06:53:02.005Z,1122.00
2023-03-29T06:54:01.961Z,1150.00
2023-03-29T06:55:01.929Z,1151.00
2023-03-29T06:56:01.903Z,1158.00
2023-03-29T06:57:01.916Z,1197.00
2023-03-29T06:58:02.718Z,1237.00
2023-03-29T06:59:01.775Z,1252.00
2023-03-29T07:00:01.763Z,1240.00
2023-03-29T07:01:01.848Z,1236.00
2023-03-29T07:02:01.709Z,1318.00
2023-03-29T07:03:01.713Z,1351.00
2023-03-29T07:04:01.639Z,1360.00
2023-03-29T07:05:01.557Z,1392.00
2023-03-29T07:06:01.506Z,1407.00
2023-03-29T07:07:01.733Z,1440.00
2023-03-29T07:08:01.537Z,1455.00
2023-03-29T07:09:01.814Z,1458.00
2023-03-29T07:10:01.583Z,1467.00
2023-03-29T07:11:01.768Z,1521.00
2023-03-29T07:12:01.642Z,1526.00
2023-03-29T07:13:01.672Z,1536.00
2023-03-29T07:14:01.701Z,1556.00
2023-03-29T07:15:01.706Z,1619.00
2023-03-29T07:16:01.780Z,1593.00
2023-03-29T07:17:01.754Z,1582.00
2023-03-29T07:18:01.785Z,1598.00
2023-03-29T07:19:01.809Z,1586.00
2023-03-29T07:20:01.860Z,1602.00
2023-03-29T07:21:02.086Z,1630.00
2023-03-29T07:22:01.922Z,1635.00
2023-03-29T07:23:01.958Z,1595.00
2023-03-29T07:24:01.971Z,1617.00
2023-03-29T07:25:01.962Z,1607.00
2023-03-29T07:26:01.950Z,1583.00
2023-03-29T07:27:04.478Z,1624.00
2023-03-29T07:28:01.903Z,1657.00
2023-03-29T07:29:01.877Z,1623.00
2023-03-29T07:30:01.843Z,1635.00
2023-03-29T07:31:02.194Z,1645.00
2023-03-29T07:32:01.784Z,1654.00
2023-03-29T07:33:01.877Z,1632.00
2023-03-29T07:34:01.704Z,1631.00
2023-03-29T07:35:01.675Z,1620.00
2023-03-29T07:36:01.665Z,1622.00
2023-03-29T07:37:01.615Z,1621.00
2023-03-29T07:38:01.583Z,1615.00
2023-03-29T07:39:01.565Z,1608.00
2023-03-29T07:40:01.519Z,1599.00
2023-03-29T07:41:01.681Z,1597.00
2023-03-29T07:42:01.472Z,1590.00
2023-03-29T07:43:01.442Z,1596.00
2023-03-29T07:44:03.313Z,1603.00
2023-03-29T07:45:01.379Z,1603.00
2023-03-29T07:46:01.363Z,1594.00
2023-03-29T07:47:01.306Z,1568.00
2023-03-29T07:48:01.345Z,1568.00
2023-03-29T07:49:01.251Z,1563.00
2023-03-29T07:50:01.243Z,1558.00
2023-03-29T07:51:01.620Z,1551.00
2023-03-29T07:52:01.154Z,1560.00
2023-03-29T07:53:01.139Z,1543.00
2023-03-29T07:54:01.089Z,1532.00
2023-03-29T07:55:01.071Z,1531.00
2023-03-29T07:56:01.034Z,1536.00
2023-03-29T07:57:01.038Z,1519.00
2023-03-29T07:58:00.977Z,1520.00
2023-03-29T07:59:00.946Z,1507.00
2023-03-29T08:00:01.112Z,1504.00
2023-03-29T08:01:01.139Z,1504.00
2023-03-29T08:02:00.854Z,1493.00
2023-03-29T08:03:00.860Z,1490.00
2023-03-29T08:04:00.854Z,1475.00
2023-03-29T08:05:00.888Z,1473.00
2023-03-29T08:06:00.754Z,1463.00
2023-03-29T08:07:00.730Z,1461.00
2023-03-29T08:08:00.709Z,1459.00
2023-03-29T08:09:00.697Z,1437.00
2023-03-29T08:10:00.638Z,1433.00
2023-03-29T08:11:00.888Z,1419.00
2023-03-29T08:12:00.611Z,1425.00
2023-03-29T08:13:00.576Z,1428.00
2023-03-29T08:14:00.536Z,1413.00
2023-03-29T08:15:00.514Z,1412.00
2023-03-29T08:16:00.472Z,1396.00
2023-03-29T08:17:00.481Z,1381.00
2023-03-29T08:18:00.487Z,1377.00
2023-03-29T08:19:00.381Z,1380.00
2023-03-29T08:20:00.349Z,1369.00
2023-03-29T08:21:00.505Z,1360.00
2023-03-29T08:22:00.294Z,1355.00
2023-03-29T08:23:00.305Z,1347.00
2023-03-29T08:24:00.340Z,1335.00
2023-03-29T08:25:00.357Z,1341.00
2023-03-29T08:26:00.389Z,1336.00
2023-03-29T08:27:00.419Z,1335.00
2023-03-29T08:28:00.445Z,1321.00
2023-03-29T08:29:00.471Z,1320.00
2023-03-29T08:30:00.518Z,1297.00
2023-03-29T08:31:00.835Z,1303.00
2023-03-29T08:32:00.578Z,1294.00
2023-03-29T08:33:00.632Z,1299.00
2023-03-29T08:34:00.645Z,1288.00
2023-03-29T08:35:00.705Z,1280.00
2023-03-29T08:36:00.775Z,1281.00
2023-03-29T08:37:00.743Z,1269.00
2023-03-29T08:38:00.778Z,1264.00
2023-03-29T08:39:00.819Z,1263.00
2023-03-29T08:40:00.854Z,1262.00
2023-03-29T08:41:01.166Z,1256.00
2023-03-29T08:42:00.934Z,1246.00
2023-03-29T08:43:00.959Z,1240.00
2023-03-29T08:44:00.999Z,1235.00
2023-03-29T08:45:01.292Z,1238.00
2023-03-29T08:46:01.090Z,1237.00
2023-03-29T08:47:01.217Z,1226.00
2023-03-29T08:48:01.217Z,1229.00
2023-03-29T08:49:01.184Z,1223.00
2023-03-29T08:50:01.220Z,1191.00
2023-03-29T08:51:01.414Z,1203.00
2023-03-29T08:52:01.353Z,1195.00
2023-03-29T08:53:01.320Z,1199.00
2023-03-29T08:54:01.338Z,1180.00
2023-03-29T08:55:01.401Z,1165.00
2023-03-29T08:56:01.399Z,1173.00
2023-03-29T08:57:01.475Z,1160.00
2023-03-29T08:58:01.469Z,1164.00
2023-03-29T08:59:01.531Z,1165.00
2023-03-29T09:00:02.474Z,1166.00
2023-03-29T09:01:01.806Z,1160.00
2023-03-29T09:02:01.948Z,1148.00
2023-03-29T09:03:01.466Z,1150.00
2023-03-29T09:04:01.422Z,1138.00
2023-03-29T09:05:01.330Z,1137.00
2023-03-29T09:06:01.305Z,1127.00
2023-03-29T09:07:01.277Z,1126.00
2023-03-29T09:08:01.250Z,1118.00
2023-03-29T09:09:01.264Z,1111.00
2023-03-29T09:10:01.363Z,1106.00
2023-03-29T09:11:01.595Z,1105.00
2023-03-29T09:12:01.365Z,1095.00
2023-03-29T09:13:01.453Z,1085.00
2023-03-29T09:14:01.446Z,1086.00
2023-03-29T09:15:01.476Z,1089.00
2023-03-29T09:16:02.514Z,1086.00
2023-03-29T09:17:01.548Z,1071.00
2023-03-29T09:18:01.571Z,1069.00
2023-03-29T09:19:01.607Z,1062.00
2023-03-29T09:20:01.644Z,1065.00
2023-03-29T09:21:01.852Z,1054.00
2023-03-29T09:22:01.743Z,1041.00
2023-03-29T09:23:01.758Z,1047.00
2023-03-29T09:24:01.799Z,1048.00
2023-03-29T09:25:01.829Z,1020.00
2023-03-29T09:26:01.870Z,1025.00
2023-03-29T09:27:01.904Z,1031.00
2023-03-29T09:28:01.966Z,1016.00
2023-03-29T09:29:01.982Z,1025.00
2023-03-29T09:30:02.012Z,1011.00
2023-03-29T09:31:02.249Z,1009.00
2023-03-29T09:32:02.284Z,1016.00
2023-03-29T09:33:02.149Z,994.00
2023-03-29T09:34:02.165Z,1009.00
2023-03-29T09:35:02.200Z,1000.00
2023-03-29T09:36:02.231Z,987.00
2023-03-29T09:37:02.237Z,999.00
2023-03-29T09:38:02.245Z,998.00
2023-03-29T09:39:02.265Z,999.00
2023-03-29T09:40:05.102Z,1000.00
2023-03-29T09:41:02.452Z,1000.00
2023-03-29T09:42:02.190Z,1000.00
2023-03-29T09:43:02.159Z,994.00
2023-03-29T09:44:02.137Z,990.00
2023-03-29T09:45:02.166Z,984.00
2023-03-29T09:46:02.245Z,982.00
2023-03-29T09:47:02.082Z,991.00
2023-03-29T09:48:02.083Z,974.00
2023-03-29T09:49:02.004Z,970.00
2023-03-29T09:50:01.981Z,966.00
2023-03-29T09:51:02.164Z,960.00
2023-03-29T09:52:01.941Z,968.00
2023-03-29T09:53:01.912Z,954.00
2023-03-29T09:54:01.884Z,957.00
2023-03-29T09:55:01.953Z,956.00
2023-03-29T09:56:01.849Z,951.00
2023-03-29T09:57:01.856Z,943.00
2023-03-29T09:58:01.781Z,944.00
2023-03-29T09:59:01.755Z,946.00
2023-03-29T10:00:01.747Z,925.00
2023-03-29T10:01:02.056Z,934.00
2023-03-29T10:02:01.672Z,935.00
2023-03-29T10:03:01.752Z,926.00
2023-03-29T10:04:01.649Z,930.00
2023-03-29T10:05:01.712Z,930.00
2023-03-29T10:06:01.596Z,922.00
2023-03-29T10:07:01.543Z,927.00
2023-03-29T10:08:01.556Z,916.00
2023-03-29T10:09:01.508Z,920.00
2023-03-29T10:10:01.473Z,913.00
2023-03-29T10:11:01.642Z,915.00
2023-03-29T10:12:01.423Z,915.00
2023-03-29T10:13:01.416Z,917.00
2023-03-29T10:14:01.448Z,906.00
2023-03-29T10:15:01.480Z,908.00
2023-03-29T10:16:01.568Z,904.00
2023-03-29T10:17:01.586Z,899.00
2023-03-29T10:18:01.594Z,894.00
2023-03-29T10:19:01.564Z,890.00
2023-03-29T10:20:03.947Z,895.00
2023-03-29T10:21:02.005Z,896.00
2023-03-29T10:22:01.556Z,894.00
2023-03-29T10:23:01.510Z,884.00
2023-03-29T10:24:01.508Z,875.00
2023-03-29T10:25:01.456Z,884.00
2023-03-29T10:26:01.420Z,875.00
2023-03-29T10:27:01.383Z,879.00
2023-03-29T10:28:01.353Z,870.00
2023-03-29T10:29:01.324Z,871.00
2023-03-29T10:30:01.299Z,870.00
2023-03-29T10:31:01.499Z,851.00
2023-03-29T10:32:01.278Z,860.00
2023-03-29T10:33:01.217Z,858.00
2023-03-29T10:34:01.176Z,849.00
2023-03-29T10:35:01.153Z,857.00
2023-03-29T10:36:01.189Z,850.00
2023-03-29T10:37:01.208Z,844.00
2023-03-29T10:38:01.050Z,835.00
2023-03-29T10:39:02.778Z,836.00
2023-03-29T10:40:00.987Z,837.00
2023-03-29T10:41:01.027Z,838.00
2023-03-29T10:42:00.948Z,837.00
2023-03-29T10:43:00.939Z,833.00
2023-03-29T10:44:00.915Z,832.00
2023-03-29T10:45:01.133Z,826.00
2023-03-29T10:46:00.844Z,817.00
2023-03-29T10:47:00.770Z,810.00
2023-03-29T10:48:00.779Z,800.00
2023-03-29T10:49:00.699Z,803.00
2023-03-29T10:50:01.482Z,796.00
2023-03-29T10:51:00.836Z,777.00
2023-03-29T10:52:00.602Z,777.00
2023-03-29T10:53:00.578Z,789.00
2023-03-29T10:54:00.558Z,786.00
2023-03-29T10:55:00.525Z,767.00
2023-03-29T10:56:00.491Z,789.00
2023-03-29T10:57:00.529Z,775.00
2023-03-29T10:58:00.423Z,780.00
2023-03-29T10:59:00.401Z,767.00
2023-03-29T11:00:00.394Z,769.00
2023-03-29T11:01:00.512Z,771.00
2023-03-29T11:02:00.384Z,776.00
2023-03-29T11:03:00.423Z,765.00
2023-03-29T11:04:00.441Z,766.00
2023-03-29T11:05:00.296Z,761.00
2023-03-29T11:06:00.217Z,766.00
2023-03-29T11:07:00.171Z,762.00
2023-03-29T11:08:00.148Z,761.00
2023-03-29T11:09:00.114Z,756.00
2023-03-29T11:10:00.122Z,758.00
2023-03-29T11:11:00.229Z,764.00
2023-03-29T11:12:14.391Z,749.00
2023-03-29T11:13:01.005Z,750.00
2023-03-29T11:14:00.128Z,750.00
2023-03-29T11:14:59.929Z,752.00
2023-03-29T11:15:59.926Z,745.00
2023-03-29T11:16:59.868Z,743.00
2023-03-29T11:17:59.886Z,754.00
2023-03-29T11:18:59.813Z,741.00
2023-03-29T11:20:00.238Z,746.00
2023-03-29T11:20:59.829Z,748.00
2023-03-29T11:21:59.709Z,739.00
2023-03-29T11:22:59.680Z,734.00
2023-03-29T11:23:59.653Z,735.00
2023-03-29T11:24:59.675Z,733.00
2023-03-29T11:25:59.717Z,741.00
2023-03-29T11:26:59.761Z,726.00
2023-03-29T11:27:59.770Z,732.00
2023-03-29T11:28:59.781Z,721.00
2023-03-29T11:29:59.784Z,718.00
2023-03-29T11:30:59.886Z,720.00
2023-03-29T11:31:59.823Z,714.00
2023-03-29T11:32:59.901Z,715.00
2023-03-29T11:33:59.763Z,714.00
2023-03-29T11:34:59.778Z,719.00
2023-03-29T11:35:59.829Z,708.00
2023-03-29T11:36:59.826Z,718.00
2023-03-29T11:37:59.849Z,718.00
2023-03-29T11:38:59.865Z,708.00
2023-03-29T11:39:59.894Z,698.00
2023-03-29T11:40:59.908Z,711.00
2023-03-29T11:41:59.922Z,710.00
2023-03-29T11:42:59.953Z,707.00
2023-03-29T11:43:59.990Z,709.00
2023-03-29T11:45:00.049Z,702.00
2023-03-29T11:46:00.097Z,690.00
2023-03-29T11:47:00.177Z,701.00
2023-03-29T11:48:00.143Z,696.00
2023-03-29T11:49:00.134Z,699.00
2023-03-29T11:50:00.150Z,684.00
2023-03-29T11:51:00.256Z,691.00
2023-03-29T11:52:00.118Z,690.00
2023-03-29T11:53:00.067Z,686.00
2023-03-29T11:54:00.069Z,681.00
2023-03-29T11:55:00.111Z,686.00
2023-03-29T11:56:00.083Z,663.00
2023-03-29T11:57:00.156Z,667.00
2023-03-29T11:58:00.029Z,667.00
2023-03-29T11:59:00.002Z,666.00
2023-03-29T12:00:00.028Z,665.00
2023-03-29T12:01:00.293Z,666.00
2023-03-29T12:01:59.998Z,659.00
2023-03-29T12:03:00.047Z,662.00
2023-03-29T12:04:00.079Z,657.00
2023-03-29T12:04:59.911Z,660.00
2023-03-29T12:05:59.911Z,655.00
2023-03-29T12:06:59.903Z,654.00
2023-03-29T12:07:59.898Z,654.00
2023-03-29T12:08:59.858Z,649.00
2023-03-29T12:09:59.874Z,647.00
2023-03-29T12:10:59.873Z,645.00
2023-03-29T12:11:59.812Z,644.00
2023-03-29T12:12:59.795Z,641.00
2023-03-29T12:13:59.779Z,643.00
2023-03-29T12:14:59.741Z,638.00
2023-03-29T12:15:59.721Z,637.00
2023-03-29T12:16:59.738Z,642.00
2023-03-29T12:17:59.706Z,636.00
2023-03-29T12:18:59.664Z,635.00
2023-03-29T12:19:59.640Z,637.00
2023-03-29T12:20:59.704Z,632.00
2023-03-29T12:21:59.679Z,631.00
2023-03-29T12:22:59.594Z,629.00